sensor_id;sensor_type;location;lat;lon;timestamp;pressure;altitude;pressure_sealevel;temperature;humidity
27020;BME280;76819;49.098;11.826;2024-03-02T00:02:06;95160.19;;;10.27;65.77
27020;BME280;76819;49.098;11.826;2024-03-02T00:07:14;95158.72;;;10.19;66.04
27020;BME280;76819;49.098;11.826;2024-03-02T00:12:16;95155.72;;;10.16;66.29
27020;BME280;76819;49.098;11.826;2024-03-02T00:17:24;95157.34;;;10.05;66.30
27020;BME280;76819;49.098;11.826;2024-03-02T00:22:28;95167.19;;;9.98;66.78
27020;BME280;76819;49.098;11.826;2024-03-02T00:27:31;95158.78;;;9.89;66.79
27020;BME280;76819;49.098;11.826;2024-03-02T00:32:34;95162.69;;;9.87;67.07
27020;BME280;76819;49.098;11.826;2024-03-02T00:37:38;95160.97;;;9.81;67.36
27020;BME280;76819;49.098;11.826;2024-03-02T00:42:41;95155.72;;;9.81;67.62
27020;BME280;76819;49.098;11.826;2024-03-02T00:47:44;95162.59;;;9.82;67.50
27020;BME280;76819;49.098;11.826;2024-03-02T00:52:48;95154.91;;;9.80;67.63
27020;BME280;76819;49.098;11.826;2024-03-02T00:57:51;95160.97;;;9.81;67.62
27020;BME280;76819;49.098;11.826;2024-03-02T01:02:53;95151.25;;;9.81;67.92
27020;BME280;76819;49.098;11.826;2024-03-02T01:07:57;95150.09;;;9.77;68.02
27020;BME280;76819;49.098;11.826;2024-03-02T01:13:00;95155.16;;;9.79;67.82
27020;BME280;76819;49.098;11.826;2024-03-02T01:18:03;95158.25;;;9.76;67.85
27020;BME280;76819;49.098;11.826;2024-03-02T01:23:07;95157.91;;;9.72;67.99
27020;BME280;76819;49.098;11.826;2024-03-02T01:28:10;95154.66;;;9.70;68.25
27020;BME280;76819;49.098;11.826;2024-03-02T01:33:13;95153.88;;;9.70;68.52
27020;BME280;76819;49.098;11.826;2024-03-02T01:38:17;95145.19;;;9.69;68.43
27020;BME280;76819;49.098;11.826;2024-03-02T01:43:19;95144.59;;;9.67;68.53
27020;BME280;76819;49.098;11.826;2024-03-02T01:48:22;95144.38;;;9.69;68.54
27020;BME280;76819;49.098;11.826;2024-03-02T01:53:26;95147.34;;;9.72;68.57
27020;BME280;76819;49.098;11.826;2024-03-02T01:58:29;95141.38;;;9.77;68.49
27020;BME280;76819;49.098;11.826;2024-03-02T02:03:32;95147.25;;;9.79;68.33
27020;BME280;76819;49.098;11.826;2024-03-02T02:08:36;95148.81;;;9.80;68.37
27020;BME280;76819;49.098;11.826;2024-03-02T02:13:39;95149.97;;;9.84;68.37
27020;BME280;76819;49.098;11.826;2024-03-02T02:18:41;95147.25;;;9.79;68.57
27020;BME280;76819;49.098;11.826;2024-03-02T02:23:46;95140.34;;;9.78;68.31
27020;BME280;76819;49.098;11.826;2024-03-02T02:28:50;95139.81;;;9.76;68.42
27020;BME280;76819;49.098;11.826;2024-03-02T02:33:52;95130.50;;;9.73;68.46
27020;BME280;76819;49.098;11.826;2024-03-02T02:38:57;95134.28;;;9.66;68.79
27020;BME280;76819;49.098;11.826;2024-03-02T02:44:01;95138.66;;;9.60;69.08
27020;BME280;76819;49.098;11.826;2024-03-02T02:49:04;95137.38;;;9.63;69.10
27020;BME280;76819;49.098;11.826;2024-03-02T02:54:08;95130.50;;;9.62;69.16
27020;BME280;76819;49.098;11.826;2024-03-02T02:59:10;95131.06;;;9.64;69.03
27020;BME280;76819;49.098;11.826;2024-03-02T03:04:13;95134.84;;;9.68;69.05
27020;BME280;76819;49.098;11.826;2024-03-02T03:09:17;95125.13;;;9.68;68.88
27020;BME280;76819;49.098;11.826;2024-03-02T03:14:20;95119.84;;;9.68;68.88
27020;BME280;76819;49.098;11.826;2024-03-02T03:19:22;95129.47;;;9.74;68.94
27020;BME280;76819;49.098;11.826;2024-03-02T03:24:26;95131.44;;;9.79;68.79
27020;BME280;76819;49.098;11.826;2024-03-02T03:29:29;95125.81;;;9.75;68.69
27020;BME280;76819;49.098;11.826;2024-03-02T03:34:32;95130.63;;;9.78;68.89
27020;BME280;76819;49.098;11.826;2024-03-02T03:39:36;95127.75;;;9.80;68.79
27020;BME280;76819;49.098;11.826;2024-03-02T03:44:39;95139.91;;;9.81;68.92
27020;BME280;76819;49.098;11.826;2024-03-02T03:49:43;95140.59;;;9.88;68.61
27020;BME280;76819;49.098;11.826;2024-03-02T03:54:47;95140.94;;;9.91;68.60
27020;BME280;76819;49.098;11.826;2024-03-02T03:59:49;95137.50;;;9.91;68.43
27020;BME280;76819;49.098;11.826;2024-03-02T04:04:52;95143.69;;;9.96;68.36
27020;BME280;76819;49.098;11.826;2024-03-02T04:09:56;95142.41;;;9.99;68.29
27020;BME280;76819;49.098;11.826;2024-03-02T04:14:59;95149.53;;;9.98;68.06
27020;BME280;76819;49.098;11.826;2024-03-02T04:20:03;95150.78;;;9.96;68.03
27020;BME280;76819;49.098;11.826;2024-03-02T04:25:08;95158.69;;;9.96;68.01
27020;BME280;76819;49.098;11.826;2024-03-02T04:30:11;95165.00;;;9.95;68.11
27020;BME280;76819;49.098;11.826;2024-03-02T04:35:14;95163.84;;;9.91;68.34
27020;BME280;76819;49.098;11.826;2024-03-02T04:40:18;95172.31;;;9.93;68.11
27020;BME280;76819;49.098;11.826;2024-03-02T04:45:21;95177.50;;;9.88;68.35
27020;BME280;76819;49.098;11.826;2024-03-02T04:50:24;95182.19;;;9.86;68.27
27020;BME280;76819;49.098;11.826;2024-03-02T04:55:28;95183.22;;;9.85;68.30
27020;BME280;76819;49.098;11.826;2024-03-02T05:00:47;95192.03;;;9.90;68.39
27020;BME280;76819;49.098;11.826;2024-03-02T05:05:50;95195.22;;;9.92;68.05
27020;BME280;76819;49.098;11.826;2024-03-02T05:10:54;95190.75;;;9.93;68.26
27020;BME280;76819;49.098;11.826;2024-03-02T05:16:17;95193.53;;;9.98;68.13
27020;BME280;76819;49.098;11.826;2024-03-02T05:21:19;95189.38;;;10.02;68.21
27020;BME280;76819;49.098;11.826;2024-03-02T05:26:23;95189.75;;;10.05;68.07
27020;BME280;76819;49.098;11.826;2024-03-02T05:31:26;95192.50;;;10.10;67.95
27020;BME280;76819;49.098;11.826;2024-03-02T05:36:29;95190.44;;;10.13;67.76
27020;BME280;76819;49.098;11.826;2024-03-02T05:41:34;95193.31;;;10.11;67.84
27020;BME280;76819;49.098;11.826;2024-03-02T05:46:36;95187.78;;;10.13;67.93
27020;BME280;76819;49.098;11.826;2024-03-02T05:51:41;95190.00;;;10.16;67.71
27020;BME280;76819;49.098;11.826;2024-03-02T05:56:45;95190.81;;;10.16;67.53
27020;BME280;76819;49.098;11.826;2024-03-02T06:01:48;95189.19;;;10.15;67.52
27020;BME280;76819;49.098;11.826;2024-03-02T06:06:52;95187.59;;;10.14;67.57
27020;BME280;76819;49.098;11.826;2024-03-02T06:11:57;95191.69;;;10.10;67.72
27020;BME280;76819;49.098;11.826;2024-03-02T06:16:59;95196.09;;;10.16;67.84
27020;BME280;76819;49.098;11.826;2024-03-02T06:22:02;95193.44;;;10.16;67.64
27020;BME280;76819;49.098;11.826;2024-03-02T06:27:06;95194.47;;;10.15;67.73
27020;BME280;76819;49.098;11.826;2024-03-02T06:32:09;95196.63;;;10.18;67.76
27020;BME280;76819;49.098;11.826;2024-03-02T06:37:12;95205.69;;;10.22;67.90
27020;BME280;76819;49.098;11.826;2024-03-02T06:42:16;95209.72;;;10.25;67.64
27020;BME280;76819;49.098;11.826;2024-03-02T06:47:19;95212.69;;;10.28;67.87
27020;BME280;76819;49.098;11.826;2024-03-02T06:52:21;95209.59;;;10.31;67.82
27020;BME280;76819;49.098;11.826;2024-03-02T06:57:27;95209.25;;;10.39;67.70
27020;BME280;76819;49.098;11.826;2024-03-02T07:02:29;95210.28;;;10.38;67.46
27020;BME280;76819;49.098;11.826;2024-03-02T07:07:32;95209.38;;;10.33;67.55
27020;BME280;76819;49.098;11.826;2024-03-02T07:12:37;95212.69;;;10.28;67.96
27020;BME280;76819;49.098;11.826;2024-03-02T07:17:40;95208.47;;;10.27;68.01
27020;BME280;76819;49.098;11.826;2024-03-02T07:22:43;95215.56;;;10.27;67.98
27020;BME280;76819;49.098;11.826;2024-03-02T07:27:47;95207.31;;;10.23;68.29
27020;BME280;76819;49.098;11.826;2024-03-02T07:32:50;95215.78;;;10.25;68.34
27020;BME280;76819;49.098;11.826;2024-03-02T07:37:53;95227.94;;;10.26;68.46
27020;BME280;76819;49.098;11.826;2024-03-02T07:42:58;95223.38;;;10.33;68.64
27020;BME280;76819;49.098;11.826;2024-03-02T07:48:01;95237.94;;;10.36;68.62
27020;BME280;76819;49.098;11.826;2024-03-02T07:53:05;95248.47;;;10.36;68.74
27020;BME280;76819;49.098;11.826;2024-03-02T07:58:10;95255.38;;;10.37;68.79
27020;BME280;76819;49.098;11.826;2024-03-02T15:05:09;95034.56;;;13.17;65.47
27020;BME280;76819;49.098;11.826;2024-03-02T15:10:12;95036.50;;;14.93;61.30
27020;BME280;76819;49.098;11.826;2024-03-02T15:15:14;95019.19;;;16.02;57.54
27020;BME280;76819;49.098;11.826;2024-03-02T15:20:19;95008.44;;;17.25;54.62
27020;BME280;76819;49.098;11.826;2024-03-02T15:25:23;95007.56;;;18.16;52.74
27020;BME280;76819;49.098;11.826;2024-03-02T15:30:25;95005.75;;;18.59;51.10
27020;BME280;76819;49.098;11.826;2024-03-02T15:35:29;94995.94;;;19.10;49.68
27020;BME280;76819;49.098;11.826;2024-03-02T15:40:32;94988.44;;;19.44;48.49
27020;BME280;76819;49.098;11.826;2024-03-02T15:45:35;94979.72;;;19.20;48.23
27020;BME280;76819;49.098;11.826;2024-03-02T15:50:39;94977.16;;;18.59;48.74
27020;BME280;76819;49.098;11.826;2024-03-02T15:55:42;94982.19;;;18.18;49.46
27020;BME280;76819;49.098;11.826;2024-03-02T16:00:45;94984.06;;;17.94;49.98
27020;BME280;76819;49.098;11.826;2024-03-02T16:05:49;94980.03;;;17.39;50.46
27020;BME280;76819;49.098;11.826;2024-03-02T16:10:51;94970.63;;;17.75;50.18
27020;BME280;76819;49.098;11.826;2024-03-02T16:15:54;94972.00;;;17.96;50.04
27020;BME280;76819;49.098;11.826;2024-03-02T16:20:58;94976.78;;;18.23;49.58
27020;BME280;76819;49.098;11.826;2024-03-02T16:26:01;94962.06;;;18.44;49.20
27020;BME280;76819;49.098;11.826;2024-03-02T16:31:04;94975.69;;;18.01;49.23
27020;BME280;76819;49.098;11.826;2024-03-02T16:36:08;94965.41;;;17.65;49.60
27020;BME280;76819;49.098;11.826;2024-03-02T16:41:11;94967.13;;;17.17;50.04
27020;BME280;76819;49.098;11.826;2024-03-02T16:46:13;94967.25;;;16.68;50.84
27020;BME280;76819;49.098;11.826;2024-03-02T16:51:18;94961.09;;;16.19;51.34
27020;BME280;76819;49.098;11.826;2024-03-02T16:56:20;94962.59;;;15.71;51.94
27020;BME280;76819;49.098;11.826;2024-03-02T17:01:23;94968.75;;;15.31;52.52
27020;BME280;76819;49.098;11.826;2024-03-02T17:06:28;94967.44;;;14.93;53.20
27020;BME280;76819;49.098;11.826;2024-03-02T17:11:31;94969.28;;;14.67;53.78
27020;BME280;76819;49.098;11.826;2024-03-02T17:16:35;94970.00;;;14.38;54.17
27020;BME280;76819;49.098;11.826;2024-03-02T17:21:39;94974.41;;;14.17;54.77
27020;BME280;76819;49.098;11.826;2024-03-02T17:26:41;94983.09;;;13.97;55.27
27020;BME280;76819;49.098;11.826;2024-03-02T17:31:44;94985.66;;;13.82;55.54
27020;BME280;76819;49.098;11.826;2024-03-02T17:36:48;94978.44;;;13.67;55.72
27020;BME280;76819;49.098;11.826;2024-03-02T17:41:51;94974.13;;;13.56;55.93
27020;BME280;76819;49.098;11.826;2024-03-02T17:46:55;94980.88;;;13.37;56.27
27020;BME280;76819;49.098;11.826;2024-03-02T17:52:01;94985.56;;;13.20;57.06
27020;BME280;76819;49.098;11.826;2024-03-02T17:57:04;94974.53;;;13.01;57.43
27020;BME280;76819;49.098;11.826;2024-03-02T18:02:07;94965.41;;;12.87;58.17
27020;BME280;76819;49.098;11.826;2024-03-02T18:07:11;94969.56;;;12.78;58.11
27020;BME280;76819;49.098;11.826;2024-03-02T18:12:14;94959.66;;;12.63;58.76
27020;BME280;76819;49.098;11.826;2024-03-02T18:17:17;94952.16;;;12.55;58.95
27020;BME280;76819;49.098;11.826;2024-03-02T18:22:21;94952.16;;;12.55;59.26
27020;BME280;76819;49.098;11.826;2024-03-02T18:27:24;94955.59;;;12.56;59.19
27020;BME280;76819;49.098;11.826;2024-03-02T18:32:27;94950.81;;;12.53;59.36
27020;BME280;76819;49.098;11.826;2024-03-02T18:37:31;94952.88;;;12.51;58.85
27020;BME280;76819;49.098;11.826;2024-03-02T18:42:34;94944.31;;;12.39;59.21
27020;BME280;76819;49.098;11.826;2024-03-02T18:47:36;94938.16;;;12.33;59.03
27020;BME280;76819;49.098;11.826;2024-03-02T18:52:44;94939.91;;;12.23;59.39
27020;BME280;76819;49.098;11.826;2024-03-02T18:57:48;94941.16;;;12.15;59.43
27020;BME280;76819;49.098;11.826;2024-03-02T19:02:50;94935.75;;;12.05;59.67
27020;BME280;76819;49.098;11.826;2024-03-02T19:07:55;94927.69;;;11.90;60.47
27020;BME280;76819;49.098;11.826;2024-03-02T19:12:57;94925.94;;;11.79;60.85
27020;BME280;76819;49.098;11.826;2024-03-02T19:18:00;94923.63;;;11.65;61.38
27020;BME280;76819;49.098;11.826;2024-03-02T19:23:04;94918.66;;;11.47;62.13
27020;BME280;76819;49.098;11.826;2024-03-02T19:28:08;94919.66;;;11.41;62.33
27020;BME280;76819;49.098;11.826;2024-03-02T19:33:11;94915.50;;;11.29;62.91
27020;BME280;76819;49.098;11.826;2024-03-02T19:38:17;94909.84;;;11.20;63.22
27020;BME280;76819;49.098;11.826;2024-03-02T19:43:19;94916.66;;;11.16;63.44
27020;BME280;76819;49.098;11.826;2024-03-02T19:48:22;94904.91;;;11.07;63.55
27020;BME280;76819;49.098;11.826;2024-03-02T19:53:26;94908.22;;;10.97;63.87
27020;BME280;76819;49.098;11.826;2024-03-02T19:58:29;94904.34;;;10.88;64.01
27020;BME280;76819;49.098;11.826;2024-03-02T20:03:33;94906.13;;;10.83;64.19
27020;BME280;76819;49.098;11.826;2024-03-02T20:08:37;94906.38;;;10.81;64.50
27020;BME280;76819;49.098;11.826;2024-03-02T20:13:40;94911.81;;;10.75;65.22
27020;BME280;76819;49.098;11.826;2024-03-02T20:18:42;94914.22;;;10.76;64.60
27020;BME280;76819;49.098;11.826;2024-03-02T20:23:46;94919.50;;;10.76;64.61
27020;BME280;76819;49.098;11.826;2024-03-02T20:28:49;94911.88;;;10.80;64.56
27020;BME280;76819;49.098;11.826;2024-03-02T20:33:53;94915.09;;;10.82;64.52
27020;BME280;76819;49.098;11.826;2024-03-02T20:38:57;94911.88;;;10.80;64.50
27020;BME280;76819;49.098;11.826;2024-03-02T20:44:00;94912.91;;;10.79;64.39
27020;BME280;76819;49.098;11.826;2024-03-02T20:49:03;94897.50;;;10.71;64.72
27020;BME280;76819;49.098;11.826;2024-03-02T20:54:08;94895.50;;;10.61;64.34
27020;BME280;76819;49.098;11.826;2024-03-02T20:59:11;94897.81;;;10.57;64.44
